Airfield :
LOGIN :

Register | Disclaimer

   EN    FR    IT 

 










Legend :    VFR   Marginal VFR   IFR   Intensive IFR   Very Intensive IFR
Visi :
Ceiling :
>= 8 km
>= 3000ft
5 to 8 km
1000 to 3000 ft
1500m to 5 km
500 to 1000 ft
800 to 1500m
200 to 500 ft
< 800m
< 200 ft
Symbols :   Thunderstorms  Fog  Heavy snow  Heavy precipitations  Wind > 20 kt
SIGMETs :     Misc.  Thunderstorms  Icing  Turbulence  Mountain Waves  Volcanic Ashes







- Airport Elevation : 183 ft
- IATA code : HAJ


EDDV - Hanover/Langenhagen Int.

CURRENT METAR :
  • 192120Z 08016KT 9999 BKN021 03/M01 Q1020 TEMPO 08015G25KT

EXPIRED METARs :
  • 192050Z 09014KT 9999 BKN021 04/M00 Q1020 TEMPO 08015G25KT
  • 192020Z 09017KT 9999 BKN023 04/M00 Q1020 TEMPO 08015G25KT
  • 191950Z 08018KT 9999 SCT023 04/00 Q1020 TEMPO 08015G25KT
  • 191920Z 07016KT 9999 SCT023 04/00 Q1020 TEMPO 08015G25KT
  • 191850Z 08016KT 9999 BKN023 BKN030 04/00 Q1020 TEMPO 08015G25KT

TAF TAF EDDV
Valid from the 19 at 18:00 until the 20 at 18:00 UTC


191700Z 1918/2018 08015KT 9999 SCT025
TEMPO 1918/2018 09015G30KT
PROB30
TEMPO 2001/2014 BKN008
TEMPO 2014/2018 2000 -SN BKN004
No reported NOTAMs for that airfield.



MET'MAP, your aeronautical weather chart ! - Copyright ORBIFLY December 2007 - Disclaimer

ORBIFLY MET'MAP TEAM :

Programming & Development : Alexandra Zaïnal
Concept & Development : Baudouin d'Aumeries
Co-Development & Prog : Marc-Olivier Méhu
Technical & hardware support : Manuel Goepfert

Contact : metmap@orbifly.com




SOURCES & CREDITS :

   NOAA